ADDS METAR Data

Data at: 0529 UTC 19 Jan 2018

METAR for:KPWM (Portland Intl, ME, US)
Text:KPWM 190451Z 00000KT 9SM CLR M09/M10 A2991 RMK AO2 SLP128 LAST T10941100 410111106
Temperature: -9.4°C ( 15°F)
Dewpoint:-10.0°C ( 14°F) [RH = 95%]
Pressure (altimeter):29.91 inches Hg (1013.0 mb) [Sea level pressure: 1012.8 mb]
Winds:calm
Visibility: 9 sm ( 14 km)
Ceiling:at least 12,000 feet AGL
Clouds:sky clear below 12,000 feet AGL